| time (UTC) | temp F | wind direction | speed MPH | gust MPH | rain 1hr in | rain 24hr in | rain mn in | humidity % | barometer mb |
| 20260906003724 | 85 | 0.0 | 0.0 | 0.00 | 0.00 | 0.00 | 76 | 1011.5 | |
| 20260906003222 | 85 | 0.0 | 0.0 | 0.00 | 0.00 | 0.00 | 76 | 1011.5 | |
| 20260906002720 | 85 | 0.0 | 0.0 | 0.00 | 0.00 | 0.00 | 76 | 1011.6 | |
| 20260906002217 | 85 | 0.0 | 0.0 | 0.00 | 0.00 | 0.00 | 75 | 1011.4 | |
| 20260906001715 | 85 | 0.0 | 0.0 | 0.00 | 0.00 | 0.00 | 75 | 1011.5 | |
| 20260906001243 | 86 | 0.0 | 0.0 | 0.00 | 0.00 | 0.00 | 74 | 1011.3 | |
| 20260906000720 | 86 | 0.0 | 0.0 | 0.00 | 0.00 | 0.00 | 74 | 1011.2 | |
| 20260906000219 | 86 | 0.0 | 0.0 | 0.00 | 0.00 | 0.00 | 74 | 1011.3 | |
| 20260905235716 | 86 | 0.0 | 0.0 | 0.00 | 0.00 | 0.00 | 74 | 1011.3 | |
| 20260905235224 | 86 | 0.0 | 0.0 | 0.00 | 0.00 | 0.00 | 73 | 1011.3 | |
| 20260905234722 | 86 | 320 | 0.0 | 1.0 | 0.00 | 0.00 | 0.00 | 73 | 1011.2 |
| 20260905234219 | 87 | 0.0 | 0.0 | 0.00 | 0.00 | 0.00 | 73 | 1011.3 | |
| 20260905233717 | 87 | 317 | 2.0 | 7.0 | 0.00 | 0.00 | 0.00 | 73 | 1011.2 |
| 20260905233225 | 88 | 263 | 0.0 | 3.0 | 0.00 | 0.00 | 0.00 | 72 | 1011.1 |
| 20260905232723 | 88 | 274 | 1.0 | 7.0 | 0.00 | 0.00 | 0.00 | 70 | 1011.1 |
| 20260905232220 | 89 | 309 | 0.0 | 3.0 | 0.00 | 0.00 | 0.00 | 69 | 1011.2 |
| 20260905231726 | 89 | 302 | 2.0 | 7.0 | 0.00 | 0.00 | 0.00 | 69 | 1011.0 |
| 20260905231216 | 90 | 301 | 2.0 | 7.0 | 0.00 | 0.00 | 0.00 | 68 | 1011.2 |
| 20260905230723 | 90 | 306 | 2.0 | 7.0 | 0.00 | 0.00 | 0.00 | 68 | 1011.2 |
| 20260905230241 | 90 | 302 | 0.0 | 2.0 | 0.00 | 0.00 | 0.00 | 68 | 1011.3 |
| 20260905225719 | 90 | 296 | 0.0 | 3.0 | 0.00 | 0.00 | 0.00 | 67 | 1011.3 |
| 20260905225216 | 90 | 287 | 2.0 | 9.0 | 0.00 | 0.00 | 0.00 | 66 | 1011.3 |
| 20260905224724 | 90 | 251 | 1.0 | 6.0 | 0.00 | 0.00 | 0.00 | 66 | 1011.1 |
| 20260905224222 | 91 | 302 | 3.0 | 7.0 | 0.00 | 0.00 | 0.00 | 66 | 1011.1 |
| 20260905223720 | 91 | 328 | 3.0 | 6.0 | 0.00 | 0.00 | 0.00 | 66 | 1011.1 |
| 20260905223217 | 91 | 300 | 5.0 | 10.0 | 0.00 | 0.00 | 0.00 | 66 | 1010.8 |
| 20260905222715 | 91 | 268 | 2.0 | 8.0 | 0.00 | 0.00 | 0.00 | 66 | 1011.1 |
| 20260905222223 | 91 | 304 | 4.0 | 8.0 | 0.00 | 0.00 | 0.00 | 68 | 1011.1 |
| 20260905221721 | 91 | 0.0 | 0.0 | 0.00 | 0.00 | 0.00 | 68 | 1011.1 | |
| 20260905221219 | 91 | 277 | 1.0 | 6.0 | 0.00 | 0.00 | 0.00 | 67 | 1011.2 |
| 20260905220716 | 90 | 314 | 2.0 | 7.0 | 0.00 | 0.00 | 0.00 | 67 | 1011.2 |
| 20260905220224 | 91 | 304 | 1.0 | 3.0 | 0.00 | 0.00 | 0.00 | 68 | 1011.0 |
| 20260905215742 | 91 | 288 | 2.0 | 4.0 | 0.00 | 0.00 | 0.00 | 69 | 1010.9 |
| 20260905215220 | 91 | 296 | 1.0 | 3.0 | 0.00 | 0.00 | 0.00 | 68 | 1011.0 |
| 20260905214717 | 91 | 314 | 3.0 | 8.0 | 0.00 | 0.00 | 0.00 | 67 | 1010.9 |
| 20260905214225 | 92 | 277 | 3.0 | 7.0 | 0.00 | 0.00 | 0.00 | 65 | 1010.9 |
| 20260905213723 | 91 | 299 | 4.0 | 7.0 | 0.00 | 0.00 | 0.00 | 63 | 1010.8 |
| 20260905213221 | 91 | 308 | 3.0 | 9.0 | 0.00 | 0.00 | 0.00 | 66 | 1010.8 |
| 20260905212718 | 92 | 299 | 7.0 | 11.0 | 0.00 | 0.00 | 0.00 | 64 | 1010.8 |
| 20260905212216 | 92 | 291 | 4.0 | 8.0 | 0.00 | 0.00 | 0.00 | 64 | 1010.7 |
| 20260905211724 | 91 | 299 | 5.0 | 9.0 | 0.00 | 0.00 | 0.00 | 65 | 1010.7 |
| 20260905211222 | 91 | 330 | 3.0 | 15.0 | 0.00 | 0.00 | 0.00 | 65 | 1010.9 |
| 20260905210721 | 92 | 287 | 4.0 | 7.0 | 0.00 | 0.00 | 0.00 | 64 | 1011.0 |
| 20260905210217 | 92 | 253 | 2.0 | 7.0 | 0.00 | 0.00 | 0.00 | 64 | 1010.9 |
| 20260905205725 | 92 | 257 | 0.0 | 6.0 | 0.00 | 0.00 | 0.00 | 65 | 1010.9 |
| 20260905205242 | 92 | 228 | 3.0 | 6.0 | 0.00 | 0.00 | 0.00 | 65 | 1011.0 |
| 20260905204721 | 92 | 235 | 4.0 | 8.0 | 0.00 | 0.00 | 0.00 | 65 | 1010.7 |
| 20260905204238 | 92 | 264 | 2.0 | 6.0 | 0.00 | 0.00 | 0.00 | 66 | 1010.8 |
| 20260905203716 | 92 | 284 | 5.0 | 13.0 | 0.00 | 0.00 | 0.00 | 66 | 1010.8 |
| 20260905203243 | 91 | 274 | 5.0 | 7.0 | 0.00 | 0.00 | 0.00 | 66 | 1010.8 |
| 20260905202741 | 92 | 269 | 7.0 | 13.0 | 0.00 | 0.00 | 0.00 | 64 | 1010.8 |
| 20260905202219 | 92 | 273 | 2.0 | 7.0 | 0.00 | 0.00 | 0.00 | 64 | 1010.8 |
| 20260905201717 | 91 | 273 | 2.0 | 9.0 | 0.00 | 0.00 | 0.00 | 65 | 1010.8 |
| 20260905201225 | 92 | 240 | 4.0 | 10.0 | 0.00 | 0.00 | 0.00 | 64 | 1010.9 |
| 20260905200722 | 92 | 258 | 5.0 | 8.0 | 0.00 | 0.00 | 0.00 | 65 | 1010.9 |
| 20260905200220 | 92 | 241 | 8.0 | 11.0 | 0.00 | 0.00 | 0.00 | 63 | 1010.9 |
| 20260905195718 | 92 | 283 | 8.0 | 11.0 | 0.00 | 0.00 | 0.00 | 64 | 1010.9 |
| 20260905195216 | 92 | 246 | 6.0 | 11.0 | 0.00 | 0.00 | 0.00 | 63 | 1011.0 |
| 20260905194724 | 92 | 245 | 4.0 | 10.0 | 0.00 | 0.00 | 0.00 | 63 | 1011.1 |
| 20260905194222 | 92 | 254 | 4.0 | 8.0 | 0.00 | 0.00 | 0.00 | 63 | 1011.3 |
| 20260905193739 | 91 | 280 | 4.0 | 7.0 | 0.00 | 0.00 | 0.00 | 64 | 1011.2 |
| 20260905193217 | 92 | 281 | 6.0 | 9.0 | 0.00 | 0.00 | 0.00 | 62 | 1011.2 |
| 20260905192725 | 92 | 288 | 2.0 | 9.0 | 0.00 | 0.00 | 0.00 | 65 | 1011.4 |
| 20260905192223 | 92 | 281 | 0.0 | 2.0 | 0.00 | 0.00 | 0.00 | 65 | 1011.4 |
| 20260905191720 | 92 | 250 | 1.0 | 3.0 | 0.00 | 0.00 | 0.00 | 64 | 1011.5 |
| 20260905191218 | 92 | 272 | 3.0 | 6.0 | 0.00 | 0.00 | 0.00 | 63 | 1011.6 |
| 20260905190716 | 92 | 229 | 1.0 | 7.0 | 0.00 | 0.00 | 0.00 | 66 | 1011.7 |
| 20260905190224 | 92 | 270 | 2.0 | 4.0 | 0.00 | 0.00 | 0.00 | 66 | 1011.7 |
| 20260905185742 | 91 | 253 | 3.0 | 8.0 | 0.00 | 0.00 | 0.00 | 65 | 1011.7 |
| 20260905185220 | 91 | 317 | 5.0 | 10.0 | 0.00 | 0.00 | 0.00 | 66 | 1011.7 |
| 20260905184717 | 91 | 246 | 3.0 | 7.0 | 0.00 | 0.00 | 0.00 | 66 | 1011.7 |
| 20260905184225 | 92 | 259 | 7.0 | 11.0 | 0.00 | 0.00 | 0.00 | 65 | 1011.9 |
| 20260905183723 | 92 | 249 | 5.0 | 9.0 | 0.00 | 0.00 | 0.00 | 65 | 1011.7 |
| 20260905183221 | 92 | 0.0 | 0.0 | 0.00 | 0.00 | 0.00 | 66 | 1011.6 | |
| 20260905182718 | 92 | 264 | 3.0 | 10.0 | 0.00 | 0.00 | 0.00 | 65 | 1011.8 |
| 20260905182216 | 92 | 257 | 2.0 | 9.0 | 0.00 | 0.00 | 0.00 | 62 | 1011.8 |
| 20260905181724 | 92 | 321 | 3.0 | 8.0 | 0.00 | 0.00 | 0.00 | 65 | 1011.8 |
| 20260905181222 | 92 | 271 | 2.0 | 8.0 | 0.00 | 0.00 | 0.00 | 65 | 1012.0 |
| 20260905180720 | 92 | 0.0 | 0.0 | 0.00 | 0.00 | 0.00 | 67 | 1011.9 | |
| 20260905180218 | 92 | 0.0 | 0.0 | 0.00 | 0.00 | 0.00 | 66 | 1012.0 | |
| 20260905175715 | 92 | 290 | 3.0 | 7.0 | 0.00 | 0.00 | 0.00 | 65 | 1012.0 |
| 20260905175224 | 92 | 0.0 | 0.0 | 0.00 | 0.00 | 0.00 | 65 | 1012.1 | |
| 20260905174721 | 92 | 250 | 2.0 | 6.0 | 0.00 | 0.00 | 0.00 | 68 | 1012.0 |
| 20260905174219 | 92 | 278 | 1.0 | 6.0 | 0.00 | 0.00 | 0.00 | 66 | 1012.1 |
| 20260905173717 | 92 | 244 | 4.0 | 8.0 | 0.00 | 0.00 | 0.00 | 64 | 1012.0 |
| 20260905173224 | 92 | 278 | 2.0 | 8.0 | 0.00 | 0.00 | 0.00 | 67 | 1012.0 |
| 20260905172722 | 92 | 271 | 2.0 | 7.0 | 0.00 | 0.00 | 0.00 | 67 | 1012.2 |
| 20260905172220 | 92 | 319 | 0.0 | 4.0 | 0.00 | 0.00 | 0.00 | 66 | 1012.3 |
| 20260905171718 | 91 | 284 | 2.0 | 6.0 | 0.00 | 0.00 | 0.00 | 67 | 1012.4 |
| 20260905171215 | 91 | 0.0 | 0.0 | 0.00 | 0.00 | 0.00 | 67 | 1012.4 | |
| 20260905170724 | 91 | 0.0 | 0.0 | 0.00 | 0.00 | 0.00 | 66 | 1012.6 | |
| 20260905170221 | 91 | 278 | 4.0 | 9.0 | 0.00 | 0.00 | 0.00 | 66 | 1012.9 |
| 20260905165719 | 91 | 0.0 | 0.0 | 0.00 | 0.00 | 0.00 | 67 | 1012.7 | |
| 20260905165217 | 91 | 242 | 4.0 | 8.0 | 0.00 | 0.00 | 0.00 | 69 | 1012.8 |
| 20260905164725 | 91 | 0.0 | 0.0 | 0.00 | 0.00 | 0.00 | 68 | 1012.8 | |
| 20260905164223 | 91 | 277 | 1.0 | 3.0 | 0.00 | 0.00 | 0.00 | 67 | 1012.9 |
| 20260905163720 | 91 | 0.0 | 0.0 | 0.00 | 0.00 | 0.00 | 67 | 1012.9 | |
| 20260905163339 | 91 | 272 | 2.0 | 6.0 | 0.00 | 0.00 | 0.00 | 66 | 1013.0 |
| 20260905162716 | 91 | 279 | 2.0 | 6.0 | 0.00 | 0.00 | 0.00 | 68 | 1013.0 |
| 20260905162224 | 90 | 0.0 | 0.0 | 0.00 | 0.00 | 0.00 | 71 | 1013.1 | |
| 20260905161722 | 90 | 0.0 | 0.0 | 0.00 | 0.00 | 0.00 | 70 | 1013.0 | |
| 20260905161220 | 90 | 241 | 4.0 | 7.0 | 0.00 | 0.00 | 0.00 | 70 | 1013.2 |
| 20260905160717 | 90 | 262 | 1.0 | 3.0 | 0.00 | 0.00 | 0.00 | 69 | 1013.2 |
| 20260905160215 | 90 | 250 | 2.0 | 6.0 | 0.00 | 0.00 | 0.00 | 73 | 1013.4 |
| 20260905155743 | 90 | 239 | 6.0 | 13.0 | 0.00 | 0.00 | 0.00 | 70 | 1013.4 |
| 20260905155241 | 90 | 248 | 1.0 | 3.0 | 0.00 | 0.00 | 0.00 | 71 | 1013.3 |
| 20260905154719 | 89 | 0.0 | 0.0 | 0.00 | 0.00 | 0.00 | 71 | 1013.2 | |
| 20260905154257 | 89 | 232 | 2.0 | 8.0 | 0.00 | 0.00 | 0.00 | 71 | 1013.2 |
| 20260905153724 | 89 | 292 | 0.0 | 3.0 | 0.00 | 0.00 | 0.00 | 71 | 1013.4 |
| 20260905153222 | 89 | 277 | 1.0 | 6.0 | 0.00 | 0.00 | 0.00 | 74 | 1013.3 |
| 20260905152719 | 89 | 0.0 | 0.0 | 0.00 | 0.00 | 0.00 | 73 | 1013.3 | |
| 20260905152237 | 89 | 242 | 4.0 | 9.0 | 0.00 | 0.00 | 0.00 | 74 | 1013.2 |
| 20260905151725 | 89 | 0.0 | 0.0 | 0.00 | 0.00 | 0.00 | 77 | 1013.4 | |
| 20260905151223 | 89 | 0.0 | 0.0 | 0.00 | 0.00 | 0.00 | 77 | 1013.6 | |
| 20260905150741 | 89 | 0.0 | 0.0 | 0.00 | 0.00 | 0.00 | 77 | 1013.5 | |
| 20260905150218 | 89 | 263 | 1.0 | 6.0 | 0.00 | 0.00 | 0.00 | 75 | 1013.3 |
| 20260905145716 | 89 | 0.0 | 0.0 | 0.00 | 0.00 | 0.00 | 77 | 1013.2 | |
| 20260905145224 | 89 | 0.0 | 0.0 | 0.00 | 0.01 | 0.00 | 77 | 1013.4 | |
| 20260905144722 | 88 | 0.0 | 0.0 | 0.00 | 0.01 | 0.00 | 78 | 1013.2 | |
| 20260905144219 | 88 | 0.0 | 0.0 | 0.00 | 0.01 | 0.00 | 81 | 1013.2 | |
| 20260905143717 | 88 | 0.0 | 0.0 | 0.00 | 0.01 | 0.00 | 81 | 1013.2 | |
| 20260905143245 | 87 | 0.0 | 0.0 | 0.00 | 0.01 | 0.00 | 80 | 1013.3 | |
| 20260905142803 | 87 | 0.0 | 0.0 | 0.00 | 0.01 | 0.00 | 82 | 1013.3 | |
| 20260905142240 | 86 | 0.0 | 0.0 | 0.00 | 0.01 | 0.00 | 81 | 1013.2 | |
| 20260905141718 | 86 | 0.0 | 0.0 | 0.00 | 0.01 | 0.00 | 81 | 1013.2 | |
| 20260905141216 | 86 | 0.0 | 0.0 | 0.00 | 0.01 | 0.00 | 83 | 1013.0 | |
| 20260905140723 | 86 | 0.0 | 0.0 | 0.00 | 0.01 | 0.00 | 83 | 1013.0 | |
| 20260905140221 | 85 | 0.0 | 0.0 | 0.00 | 0.01 | 0.00 | 84 | 1013.3 | |
| 20260905135719 | 85 | 0.0 | 0.0 | 0.00 | 0.01 | 0.00 | 84 | 1013.2 | |
| 20260905135217 | 85 | 261 | 0.0 | 3.0 | 0.00 | 0.01 | 0.00 | 84 | 1013.1 |
| 20260905134724 | 85 | 0.0 | 0.0 | 0.00 | 0.01 | 0.00 | 86 | 1013.1 | |
| 20260905134222 | 85 | 0.0 | 0.0 | 0.00 | 0.01 | 0.00 | 87 | 1013.2 | |
| 20260905133741 | 85 | 0.0 | 0.0 | 0.00 | 0.01 | 0.00 | 87 | 1013.1 | |
| 20260905133238 | 85 | 0.0 | 0.0 | 0.00 | 0.01 | 0.00 | 88 | 1013.2 | |
| 20260905132716 | 84 | 0.0 | 0.0 | 0.00 | 0.01 | 0.00 | 88 | 1013.3 | |
| 20260905132224 | 84 | 0.0 | 0.0 | 0.00 | 0.01 | 0.00 | 88 | 1013.1 | |
| 20260905131744 | 84 | 121 | 0.0 | 3.0 | 0.00 | 0.01 | 0.00 | 89 | 1013.3 |
| 20260905131239 | 83 | 0.0 | 0.0 | 0.00 | 0.01 | 0.00 | 90 | 1013.2 | |
| 20260905130737 | 83 | 166 | 0.0 | 1.0 | 0.00 | 0.01 | 0.00 | 90 | 1013.2 |
| 20260905130225 | 83 | 0.0 | 0.0 | 0.00 | 0.01 | 0.00 | 90 | 1013.3 | |
| 20260905125743 | 83 | 0.0 | 0.0 | 0.00 | 0.01 | 0.00 | 92 | 1013.1 | |
| 20260905125221 | 82 | 0.0 | 0.0 | 0.00 | 0.01 | 0.00 | 92 | 1013.1 | |
| 20260905124719 | 82 | 0.0 | 0.0 | 0.00 | 0.01 | 0.00 | 92 | 1013.1 | |
| 20260905124216 | 82 | 0.0 | 0.0 | 0.00 | 0.01 | 0.00 | 93 | 1013.0 | |
| 20260905123724 | 82 | 0.0 | 0.0 | 0.00 | 0.01 | 0.00 | 93 | 1013.0 | |
| 20260905123222 | 81 | 0.0 | 0.0 | 0.00 | 0.01 | 0.00 | 93 | 1013.0 | |
| 20260905122719 | 81 | 0.0 | 0.0 | 0.00 | 0.01 | 0.00 | 93 | 1013.2 | |
| 20260905122217 | 81 | 0.0 | 0.0 | 0.00 | 0.01 | 0.00 | 94 | 1013.2 | |
| 20260905121725 | 81 | 0.0 | 0.0 | 0.00 | 0.01 | 0.00 | 94 | 1013.2 | |
| 20260905121243 | 81 | 0.0 | 0.0 | 0.00 | 0.01 | 0.00 | 94 | 1013.1 | |
| 20260905120720 | 80 | 0.0 | 0.0 | 0.00 | 0.01 | 0.00 | 95 | 1013.3 | |
| 20260905120258 | 80 | 0.0 | 0.0 | 0.00 | 0.01 | 0.00 | 95 | 1013.1 | |
| 20260905115718 | 80 | 0.0 | 0.0 | 0.00 | 0.01 | 0.00 | 95 | 1013.2 | |
| 20260905115244 | 79 | 0.0 | 0.0 | 0.00 | 0.01 | 0.00 | 95 | 1013.1 | |
| 20260905114722 | 79 | 0.0 | 0.0 | 0.00 | 0.01 | 0.00 | 95 | 1013.1 | |
| 20260905114219 | 79 | 0.0 | 0.0 | 0.00 | 0.01 | 0.00 | 95 | 1012.9 | |
| 20260905113717 | 79 | 0.0 | 0.0 | 0.00 | 0.01 | 0.00 | 95 | 1012.7 | |
| 20260905113225 | 78 | 0.0 | 0.0 | 0.00 | 0.01 | 0.00 | 95 | 1012.8 | |
| 20260905112723 | 78 | 0.0 | 0.0 | 0.00 | 0.01 | 0.00 | 95 | 1012.7 | |
| 20260905112221 | 77 | 0.0 | 0.0 | 0.00 | 0.01 | 0.00 | 94 | 1012.7 | |
| 20260905111718 | 77 | 0.0 | 0.0 | 0.00 | 0.01 | 0.00 | 94 | 1012.8 | |
| 20260905111216 | 77 | 0.0 | 0.0 | 0.00 | 0.01 | 0.00 | 94 | 1012.8 | |
| 20260905110724 | 77 | 0.0 | 0.0 | 0.00 | 0.01 | 0.00 | 94 | 1012.7 | |
| 20260905110222 | 77 | 0.0 | 0.0 | 0.00 | 0.01 | 0.00 | 94 | 1012.6 | |
| 20260905105720 | 77 | 0.0 | 0.0 | 0.00 | 0.01 | 0.00 | 94 | 1012.5 | |
| 20260905105237 | 77 | 0.0 | 0.0 | 0.00 | 0.01 | 0.00 | 94 | 1012.6 | |
| 20260905104805 | 77 | 0.0 | 0.0 | 0.00 | 0.01 | 0.00 | 94 | 1012.7 | |
| 20260905104243 | 77 | 0.0 | 0.0 | 0.00 | 0.01 | 0.00 | 94 | 1012.6 | |
| 20260905103720 | 78 | 0.0 | 0.0 | 0.00 | 0.01 | 0.00 | 94 | 1012.5 | |
| 20260905103218 | 78 | 0.0 | 0.0 | 0.00 | 0.01 | 0.00 | 94 | 1012.5 | |
| 20260905102736 | 78 | 0.0 | 0.0 | 0.00 | 0.01 | 0.00 | 94 | 1012.3 | |
| 20260905102224 | 78 | 0.0 | 0.0 | 0.00 | 0.01 | 0.00 | 94 | 1012.3 | |
| 20260905101742 | 78 | 0.0 | 0.0 | 0.00 | 0.01 | 0.00 | 94 | 1012.4 | |
| 20260905101219 | 78 | 0.0 | 0.0 | 0.00 | 0.01 | 0.00 | 94 | 1012.4 | |
| 20260905100717 | 78 | 0.0 | 0.0 | 0.00 | 0.01 | 0.00 | 94 | 1012.4 | |
| 20260905100225 | 78 | 0.0 | 0.0 | 0.00 | 0.01 | 0.00 | 93 | 1012.3 | |
| 20260905095723 | 78 | 0.0 | 0.0 | 0.00 | 0.01 | 0.00 | 93 | 1012.3 | |
| 20260905095305 | 78 | 0.0 | 0.0 | 0.00 | 0.01 | 0.00 | 93 | 1012.2 | |
| 20260905094720 | 78 | 0.0 | 0.0 | 0.00 | 0.01 | 0.00 | 93 | 1012.1 | |
| 20260905094216 | 78 | 0.0 | 0.0 | 0.00 | 0.01 | 0.00 | 93 | 1012.1 | |
| 20260905093744 | 78 | 0.0 | 0.0 | 0.00 | 0.01 | 0.00 | 93 | 1012.2 | |
| 20260905093221 | 78 | 0.0 | 0.0 | 0.00 | 0.01 | 0.00 | 93 | 1012.1 | |
| 20260905092719 | 78 | 0.0 | 0.0 | 0.00 | 0.01 | 0.00 | 93 | 1012.1 | |
| 20260905092220 | 78 | 0.0 | 0.0 | 0.00 | 0.01 | 0.00 | 93 | 1012.2 | |
| 20260905091725 | 78 | 0.0 | 0.0 | 0.00 | 0.01 | 0.00 | 93 | 1012.2 | |
| 20260905091242 | 78 | 0.0 | 0.0 | 0.00 | 0.01 | 0.00 | 92 | 1012.2 | |
| 20260905090720 | 78 | 0.0 | 0.0 | 0.00 | 0.01 | 0.00 | 93 | 1012.2 | |
| 20260905090218 | 78 | 0.0 | 0.0 | 0.00 | 0.01 | 0.00 | 93 | 1012.2 | |
| 20260905085717 | 78 | 0.0 | 0.0 | 0.00 | 0.01 | 0.00 | 93 | 1012.2 | |
| 20260905085223 | 78 | 0.0 | 0.0 | 0.00 | 0.01 | 0.00 | 92 | 1012.2 | |
| 20260905084741 | 78 | 0.0 | 0.0 | 0.00 | 0.01 | 0.00 | 92 | 1012.1 | |
| 20260905084219 | 78 | 0.0 | 0.0 | 0.00 | 0.01 | 0.00 | 92 | 1012.0 | |
| 20260905083716 | 78 | 0.0 | 0.0 | 0.00 | 0.01 | 0.00 | 92 | 1011.9 | |
| 20260905083224 | 78 | 0.0 | 0.0 | 0.00 | 0.01 | 0.00 | 92 | 1012.1 | |
| 20260905082722 | 78 | 0.0 | 0.0 | 0.00 | 0.01 | 0.00 | 92 | 1012.0 | |
| 20260905082220 | 78 | 182 | 0.0 | 2.0 | 0.00 | 0.01 | 0.00 | 91 | 1012.0 |
| 20260905081719 | 78 | 0.0 | 0.0 | 0.00 | 0.01 | 0.00 | 91 | 1012.0 | |
| 20260905081225 | 78 | 0.0 | 0.0 | 0.00 | 0.01 | 0.00 | 91 | 1012.2 | |
| 20260905080721 | 78 | 0.0 | 0.0 | 0.00 | 0.01 | 0.00 | 91 | 1012.0 | |
| 20260905080218 | 78 | 0.0 | 0.0 | 0.00 | 0.01 | 0.00 | 91 | 1012.1 | |
| 20260905075716 | 78 | 0.0 | 0.0 | 0.00 | 0.01 | 0.00 | 91 | 1012.1 | |
| 20260905075224 | 78 | 0.0 | 0.0 | 0.00 | 0.01 | 0.00 | 91 | 1012.1 | |
| 20260905074722 | 78 | 0.0 | 0.0 | 0.00 | 0.01 | 0.00 | 91 | 1012.1 | |
| 20260905074300 | 78 | 0.0 | 0.0 | 0.00 | 0.01 | 0.00 | 91 | 1012.1 | |
| 20260905073737 | 78 | 0.0 | 0.0 | 0.00 | 0.01 | 0.00 | 91 | 1012.2 | |
| 20260905073225 | 78 | 0.0 | 0.0 | 0.00 | 0.01 | 0.00 | 91 | 1012.1 | |
| 20260905072803 | 78 | 0.0 | 0.0 | 0.00 | 0.01 | 0.00 | 91 | 1012.1 | |
| 20260905072221 | 78 | 0.0 | 0.0 | 0.00 | 0.01 | 0.00 | 91 | 1012.1 | |
| 20260905071718 | 78 | 0.0 | 0.0 | 0.00 | 0.01 | 0.00 | 91 | 1012.0 | |
| 20260905071216 | 78 | 0.0 | 0.0 | 0.00 | 0.01 | 0.00 | 91 | 1012.2 | |
| 20260905070745 | 78 | 0.0 | 0.0 | 0.00 | 0.01 | 0.00 | 90 | 1012.1 | |
| 20260905070222 | 78 | 156 | 0.0 | 2.0 | 0.00 | 0.01 | 0.00 | 90 | 1012.3 |
| 20260905065720 | 78 | 0.0 | 0.0 | 0.00 | 0.01 | 0.00 | 90 | 1012.0 | |
| 20260905065258 | 78 | 0.0 | 0.0 | 0.00 | 0.01 | 0.00 | 90 | 1012.3 | |
| 20260905064715 | 79 | 0.0 | 0.0 | 0.00 | 0.01 | 0.00 | 90 | 1012.3 | |
| 20260905064305 | 79 | 0.0 | 0.0 | 0.00 | 0.01 | 0.00 | 90 | 1012.4 | |
| 20260905063721 | 79 | 0.0 | 0.0 | 0.00 | 0.01 | 0.00 | 90 | 1012.5 | |
| 20260905063258 | 79 | 0.0 | 0.0 | 0.00 | 0.01 | 0.00 | 90 | 1012.5 | |
| 20260905062716 | 79 | 0.0 | 0.0 | 0.00 | 0.01 | 0.00 | 90 | 1012.4 | |
| 20260905062306 | 79 | 0.0 | 0.0 | 0.00 | 0.01 | 0.00 | 90 | 1012.4 | |
| 20260905061722 | 79 | 0.0 | 0.0 | 0.00 | 0.01 | 0.00 | 89 | 1012.6 | |
| 20260905061220 | 79 | 0.0 | 0.0 | 0.00 | 0.01 | 0.00 | 89 | 1012.6 | |
| 20260905060759 | 79 | 0.0 | 0.0 | 0.00 | 0.01 | 0.00 | 89 | 1012.5 | |
| 20260905060215 | 79 | 0.0 | 0.0 | 0.00 | 0.01 | 0.00 | 89 | 1012.7 | |
| 20260905055743 | 79 | 0.0 | 0.0 | 0.00 | 0.01 | 0.00 | 89 | 1012.7 | |
| 20260905055221 | 79 | 0.0 | 0.0 | 0.00 | 0.01 | 0.00 | 89 | 1012.7 | |
| 20260905054719 | 79 | 0.0 | 0.0 | 0.00 | 0.01 | 0.00 | 89 | 1012.9 | |
| 20260905054217 | 80 | 0.0 | 0.0 | 0.00 | 0.01 | 0.00 | 89 | 1012.8 | |
| 20260905053724 | 80 | 0.0 | 0.0 | 0.00 | 0.01 | 0.00 | 89 | 1012.8 | |
| 20260905053222 | 80 | 0.0 | 0.0 | 0.00 | 0.01 | 0.00 | 90 | 1013.0 | |
| 20260905052720 | 80 | 0.0 | 0.0 | 0.00 | 0.01 | 0.00 | 90 | 1012.9 | |
| 20260905052220 | 80 | 0.0 | 0.0 | 0.00 | 0.01 | 0.00 | 90 | 1013.0 | |
| 20260905051736 | 80 | 0.0 | 0.0 | 0.00 | 0.01 | 0.00 | 90 | 1013.2 | |
| 20260905051226 | 80 | 0.0 | 0.0 | 0.00 | 0.01 | 0.00 | 91 | 1013.1 | |
| 20260905050721 | 80 | 0.0 | 0.0 | 0.00 | 0.01 | 0.00 | 91 | 1013.1 | |
| 20260905050239 | 80 | 0.0 | 0.0 | 0.00 | 0.01 | 0.00 | 90 | 1013.2 | |
| 20260905045740 | 80 | 0.0 | 0.0 | 0.00 | 0.01 | 0.00 | 90 | 1013.3 | |
| 20260905045224 | 80 | 0.0 | 0.0 | 0.00 | 0.01 | 0.00 | 90 | 1013.3 | |
| 20260905044722 | 81 | 0.0 | 0.0 | 0.00 | 0.01 | 0.00 | 89 | 1013.3 | |
| 20260905044220 | 81 | 0.0 | 0.0 | 0.00 | 0.01 | 0.00 | 89 | 1013.3 | |
| 20260905043717 | 81 | 0.0 | 0.0 | 0.00 | 0.01 | 0.00 | 89 | 1013.3 | |
| 20260905043227 | 81 | 0.0 | 0.0 | 0.00 | 0.01 | 0.00 | 89 | 1013.3 | |
| 20260905042723 | 81 | 0.0 | 0.0 | 0.00 | 0.01 | 0.00 | 89 | 1013.2 | |
| 20260905042221 | 81 | 0.0 | 0.0 | 0.00 | 0.01 | 0.00 | 89 | 1013.4 | |
| 20260905041739 | 81 | 0.0 | 0.0 | 0.00 | 0.01 | 0.00 | 89 | 1013.2 | |
| 20260905041216 | 81 | 0.0 | 0.0 | 0.00 | 0.01 | 0.00 | 89 | 1013.3 | |
| 20260905040724 | 81 | 0.0 | 0.0 | 0.00 | 0.01 | 0.00 | 89 | 1013.2 | |
| 20260905040222 | 82 | 0.0 | 0.0 | 0.00 | 0.01 | 0.00 | 90 | 1013.4 | |
| 20260905035720 | 82 | 0.0 | 0.0 | 0.00 | 0.01 | 0.01 | 90 | 1013.3 | |
| 20260905035217 | 82 | 0.0 | 0.0 | 0.00 | 0.01 | 0.01 | 89 | 1013.5 | |
| 20260905034745 | 82 | 0.0 | 0.0 | 0.00 | 0.01 | 0.01 | 89 | 1013.3 | |
| 20260905034223 | 82 | 0.0 | 0.0 | 0.00 | 0.01 | 0.01 | 89 | 1013.5 | |
| 20260905033741 | 82 | 0.0 | 0.0 | 0.00 | 0.01 | 0.01 | 89 | 1013.3 | |
| 20260905033218 | 82 | 0.0 | 0.0 | 0.00 | 0.01 | 0.01 | 88 | 1013.3 | |
| 20260905032736 | 82 | 0.0 | 0.0 | 0.00 | 0.01 | 0.01 | 87 | 1013.3 | |
| 20260905032223 | 82 | 0.0 | 0.0 | 0.00 | 0.01 | 0.01 | 87 | 1013.4 | |
| 20260905031721 | 82 | 0.0 | 0.0 | 0.00 | 0.01 | 0.01 | 87 | 1013.6 | |
| 20260905031219 | 82 | 0.0 | 0.0 | 0.00 | 0.01 | 0.01 | 87 | 1013.6 | |
| 20260905030717 | 83 | 0.0 | 0.0 | 0.00 | 0.01 | 0.01 | 87 | 1013.6 | |
| 20260905030225 | 83 | 0.0 | 0.0 | 0.00 | 0.01 | 0.01 | 87 | 1013.8 | |
| 20260905025723 | 83 | 0.0 | 0.0 | 0.00 | 0.01 | 0.01 | 86 | 1013.7 | |
| 20260905025220 | 83 | 0.0 | 0.0 | 0.00 | 0.01 | 0.01 | 86 | 1013.8 | |
| 20260905024718 | 83 | 0.0 | 0.0 | 0.00 | 0.01 | 0.01 | 86 | 1013.7 | |
| 20260905024216 | 83 | 0.0 | 0.0 | 0.00 | 0.01 | 0.01 | 85 | 1013.7 | |
| 20260905023724 | 83 | 0.0 | 0.0 | 0.00 | 0.01 | 0.01 | 85 | 1013.7 | |
| 20260905023221 | 83 | 0.0 | 0.0 | 0.00 | 0.01 | 0.01 | 85 | 1013.8 | |
| 20260905022719 | 83 | 0.0 | 0.0 | 0.00 | 0.01 | 0.01 | 85 | 1013.7 | |
| 20260905022217 | 83 | 0.0 | 0.0 | 0.00 | 0.01 | 0.01 | 84 | 1013.8 | |
| 20260905021725 | 83 | 0.0 | 0.0 | 0.00 | 0.01 | 0.01 | 84 | 1013.7 | |
| 20260905021223 | 83 | 0.0 | 0.0 | 0.00 | 0.01 | 0.01 | 84 | 1013.7 | |
| 20260905020720 | 83 | 0.0 | 0.0 | 0.00 | 0.01 | 0.01 | 84 | 1013.6 | |
| 20260905020238 | 83 | 0.0 | 0.0 | 0.00 | 0.01 | 0.01 | 84 | 1013.5 | |
| 20260905015716 | 83 | 0.0 | 0.0 | 0.00 | 0.01 | 0.01 | 84 | 1013.6 | |
| 20260905015223 | 83 | 0.0 | 0.0 | 0.00 | 0.01 | 0.01 | 84 | 1013.5 | |
| 20260905014741 | 83 | 0.0 | 0.0 | 0.00 | 0.01 | 0.01 | 83 | 1013.5 | |
| 20260905014300 | 84 | 0.0 | 0.0 | 0.00 | 0.01 | 0.01 | 82 | 1013.4 | |
| 20260905013717 | 84 | 0.0 | 0.0 | 0.00 | 0.01 | 0.01 | 82 | 1013.3 | |
| 20260905013224 | 85 | 0.0 | 0.0 | 0.00 | 0.01 | 0.01 | 81 | 1013.4 | |
| 20260905012722 | 85 | 0.0 | 0.0 | 0.00 | 0.01 | 0.01 | 80 | 1013.2 | |
| 20260905012220 | 85 | 0.0 | 0.0 | 0.00 | 0.01 | 0.01 | 80 | 1013.6 | |
| 20260905011718 | 85 | 0.0 | 0.0 | 0.00 | 0.01 | 0.01 | 80 | 1013.5 | |
| 20260905011245 | 85 | 0.0 | 0.0 | 0.00 | 0.01 | 0.01 | 80 | 1013.4 | |
| 20260905010723 | 85 | 0.0 | 0.0 | 0.00 | 0.01 | 0.01 | 80 | 1013.4 | |
| 20260905010221 | 85 | 0.0 | 0.0 | 0.00 | 0.01 | 0.01 | 79 | 1013.3 | |
| 20260905005718 | 85 | 0.0 | 0.0 | 0.00 | 0.01 | 0.01 | 79 | 1013.3 | |
| 20260905005236 | 85 | 0.0 | 0.0 | 0.00 | 0.01 | 0.01 | 79 | 1013.2 | |
| 20260905004744 | 85 | 0.0 | 0.0 | 0.00 | 0.01 | 0.01 | 79 | 1013.6 | |
| 20260905004221 | 85 | 0.0 | 0.0 | 0.00 | 0.01 | 0.01 | 79 | 1013.5 |